sensor_id;sensor_type;location;lat;lon;timestamp;temperature;humidity
3136;DHT22;1578;47.658;9.922;2024-03-25T00:00:46;2.80;57.40
3136;DHT22;1578;47.658;9.922;2024-03-25T00:03:32;2.70;57.60
3136;DHT22;1578;47.658;9.922;2024-03-25T00:06:18;2.70;58.50
3136;DHT22;1578;47.658;9.922;2024-03-25T00:09:05;2.80;57.50
3136;DHT22;1578;47.658;9.922;2024-03-25T00:11:53;2.80;57.00
3136;DHT22;1578;47.658;9.922;2024-03-25T00:14:40;2.80;56.90
3136;DHT22;1578;47.658;9.922;2024-03-25T00:17:26;2.80;57.70
3136;DHT22;1578;47.658;9.922;2024-03-25T00:20:13;2.90;57.30
3136;DHT22;1578;47.658;9.922;2024-03-25T00:22:59;2.90;57.40
3136;DHT22;1578;47.658;9.922;2024-03-25T00:25:45;2.90;58.00
3136;DHT22;1578;47.658;9.922;2024-03-25T00:28:31;3.00;56.50
3136;DHT22;1578;47.658;9.922;2024-03-25T00:31:17;3.00;56.10
3136;DHT22;1578;47.658;9.922;2024-03-25T00:34:03;3.00;55.50
3136;DHT22;1578;47.658;9.922;2024-03-25T00:36:49;3.00;55.90
3136;DHT22;1578;47.658;9.922;2024-03-25T00:39:34;3.10;56.50
3136;DHT22;1578;47.658;9.922;2024-03-25T00:42:21;3.10;56.50
3136;DHT22;1578;47.658;9.922;2024-03-25T00:45:07;3.20;56.40
3136;DHT22;1578;47.658;9.922;2024-03-25T00:47:53;3.20;55.60
3136;DHT22;1578;47.658;9.922;2024-03-25T00:50:39;3.10;56.10
3136;DHT22;1578;47.658;9.922;2024-03-25T00:53:25;3.10;54.70
3136;DHT22;1578;47.658;9.922;2024-03-25T00:56:11;3.10;55.50
3136;DHT22;1578;47.658;9.922;2024-03-25T00:58:57;3.00;55.90
3136;DHT22;1578;47.658;9.922;2024-03-25T01:01:47;3.00;56.10
3136;DHT22;1578;47.658;9.922;2024-03-25T01:04:33;3.00;55.50
3136;DHT22;1578;47.658;9.922;2024-03-25T01:07:19;3.00;55.70
3136;DHT22;1578;47.658;9.922;2024-03-25T01:10:06;3.10;55.60
3136;DHT22;1578;47.658;9.922;2024-03-25T01:12:52;3.20;57.10
3136;DHT22;1578;47.658;9.922;2024-03-25T01:15:38;3.30;55.90
3136;DHT22;1578;47.658;9.922;2024-03-25T01:18:23;3.20;55.40
3136;DHT22;1578;47.658;9.922;2024-03-25T01:21:09;3.10;55.90
3136;DHT22;1578;47.658;9.922;2024-03-25T01:23:55;3.20;56.40
3136;DHT22;1578;47.658;9.922;2024-03-25T01:26:41;3.30;57.20
3136;DHT22;1578;47.658;9.922;2024-03-25T01:29:27;3.20;56.80
3136;DHT22;1578;47.658;9.922;2024-03-25T01:32:13;3.30;56.10
3136;DHT22;1578;47.658;9.922;2024-03-25T01:34:59;3.20;54.60
3136;DHT22;1578;47.658;9.922;2024-03-25T01:37:45;3.20;55.80
3136;DHT22;1578;47.658;9.922;2024-03-25T01:40:31;3.30;55.30
3136;DHT22;1578;47.658;9.922;2024-03-25T01:43:17;3.30;52.30
3136;DHT22;1578;47.658;9.922;2024-03-25T01:46:03;3.30;53.00
3136;DHT22;1578;47.658;9.922;2024-03-25T01:48:51;3.30;52.50
3136;DHT22;1578;47.658;9.922;2024-03-25T01:51:39;3.40;51.30
3136;DHT22;1578;47.658;9.922;2024-03-25T01:54:26;3.40;50.30
3136;DHT22;1578;47.658;9.922;2024-03-25T01:57:13;3.40;49.80
3136;DHT22;1578;47.658;9.922;2024-03-25T01:59:59;3.50;51.30
3136;DHT22;1578;47.658;9.922;2024-03-25T02:02:45;3.50;51.30
3136;DHT22;1578;47.658;9.922;2024-03-25T02:05:34;3.60;50.10
3136;DHT22;1578;47.658;9.922;2024-03-25T02:08:21;3.50;50.50
3136;DHT22;1578;47.658;9.922;2024-03-25T02:11:08;3.60;49.90
3136;DHT22;1578;47.658;9.922;2024-03-25T02:13:55;3.40;48.40
3136;DHT22;1578;47.658;9.922;2024-03-25T02:16:40;3.30;48.70
3136;DHT22;1578;47.658;9.922;2024-03-25T02:19:27;3.30;50.30
3136;DHT22;1578;47.658;9.922;2024-03-25T02:22:13;3.30;49.30
3136;DHT22;1578;47.658;9.922;2024-03-25T02:24:59;3.30;49.90
3136;DHT22;1578;47.658;9.922;2024-03-25T02:27:46;3.30;49.20
3136;DHT22;1578;47.658;9.922;2024-03-25T02:30:31;3.20;49.60
3136;DHT22;1578;47.658;9.922;2024-03-25T02:33:17;3.20;49.30
3136;DHT22;1578;47.658;9.922;2024-03-25T02:36:04;3.10;51.00
3136;DHT22;1578;47.658;9.922;2024-03-25T02:38:50;3.10;52.30
3136;DHT22;1578;47.658;9.922;2024-03-25T02:41:35;3.10;51.00
3136;DHT22;1578;47.658;9.922;2024-03-25T02:44:23;3.10;52.60
3136;DHT22;1578;47.658;9.922;2024-03-25T02:47:09;3.10;52.00
3136;DHT22;1578;47.658;9.922;2024-03-25T02:49:55;3.10;52.30
3136;DHT22;1578;47.658;9.922;2024-03-25T02:52:41;3.30;52.50
3136;DHT22;1578;47.658;9.922;2024-03-25T02:55:27;3.30;51.30
3136;DHT22;1578;47.658;9.922;2024-03-25T02:58:13;3.30;51.70
3136;DHT22;1578;47.658;9.922;2024-03-25T03:00:58;3.20;51.40
3136;DHT22;1578;47.658;9.922;2024-03-25T03:03:44;3.20;52.00
3136;DHT22;1578;47.658;9.922;2024-03-25T03:06:30;3.20;51.40
3136;DHT22;1578;47.658;9.922;2024-03-25T03:09:16;3.10;52.50
3136;DHT22;1578;47.658;9.922;2024-03-25T03:12:02;3.10;52.80
3136;DHT22;1578;47.658;9.922;2024-03-25T03:14:48;3.10;53.00
3136;DHT22;1578;47.658;9.922;2024-03-25T03:17:34;3.10;54.60
3136;DHT22;1578;47.658;9.922;2024-03-25T03:20:20;3.20;55.80
3136;DHT22;1578;47.658;9.922;2024-03-25T03:23:06;3.30;53.90
3136;DHT22;1578;47.658;9.922;2024-03-25T03:25:52;3.30;52.90
3136;DHT22;1578;47.658;9.922;2024-03-25T03:28:38;3.20;53.00
3136;DHT22;1578;47.658;9.922;2024-03-25T03:31:25;3.20;54.30
3136;DHT22;1578;47.658;9.922;2024-03-25T03:34:11;3.20;52.20
3136;DHT22;1578;47.658;9.922;2024-03-25T03:36:57;3.10;53.50
3136;DHT22;1578;47.658;9.922;2024-03-25T03:39:43;3.10;53.80
3136;DHT22;1578;47.658;9.922;2024-03-25T03:42:29;3.10;53.60
3136;DHT22;1578;47.658;9.922;2024-03-25T03:45:15;3.20;53.90
3136;DHT22;1578;47.658;9.922;2024-03-25T03:48:01;3.30;53.70
3136;DHT22;1578;47.658;9.922;2024-03-25T03:50:47;3.50;53.50
3136;DHT22;1578;47.658;9.922;2024-03-25T03:53:33;3.40;52.40
3136;DHT22;1578;47.658;9.922;2024-03-25T03:56:19;3.60;51.40
3136;DHT22;1578;47.658;9.922;2024-03-25T03:59:05;3.50;50.90
3136;DHT22;1578;47.658;9.922;2024-03-25T04:01:51;3.50;51.40
3136;DHT22;1578;47.658;9.922;2024-03-25T04:04:37;3.60;49.60
3136;DHT22;1578;47.658;9.922;2024-03-25T04:07:23;3.40;48.00
3136;DHT22;1578;47.658;9.922;2024-03-25T04:10:14;3.20;48.60
3136;DHT22;1578;47.658;9.922;2024-03-25T04:13:00;3.00;50.90
3136;DHT22;1578;47.658;9.922;2024-03-25T04:15:47;3.00;51.20
3136;DHT22;1578;47.658;9.922;2024-03-25T04:18:33;2.90;52.50
3136;DHT22;1578;47.658;9.922;2024-03-25T04:21:19;3.10;52.80
3136;DHT22;1578;47.658;9.922;2024-03-25T04:24:05;3.10;52.60
3136;DHT22;1578;47.658;9.922;2024-03-25T04:26:51;3.20;52.70
3136;DHT22;1578;47.658;9.922;2024-03-25T04:29:37;3.20;50.80
3136;DHT22;1578;47.658;9.922;2024-03-25T04:32:23;3.10;50.90
3136;DHT22;1578;47.658;9.922;2024-03-25T04:35:09;3.10;51.00
3136;DHT22;1578;47.658;9.922;2024-03-25T04:37:55;3.10;51.00
3136;DHT22;1578;47.658;9.922;2024-03-25T04:40:41;3.00;50.90
3136;DHT22;1578;47.658;9.922;2024-03-25T04:43:26;3.00;49.60
3136;DHT22;1578;47.658;9.922;2024-03-25T04:46:12;2.90;49.00
3136;DHT22;1578;47.658;9.922;2024-03-25T04:48:58;3.00;48.80
3136;DHT22;1578;47.658;9.922;2024-03-25T04:51:44;2.90;48.60
3136;DHT22;1578;47.658;9.922;2024-03-25T04:54:30;2.70;48.80
3136;DHT22;1578;47.658;9.922;2024-03-25T04:57:16;2.70;50.10
3136;DHT22;1578;47.658;9.922;2024-03-25T05:00:02;2.50;50.00
3136;DHT22;1578;47.658;9.922;2024-03-25T05:02:48;2.60;51.40
3136;DHT22;1578;47.658;9.922;2024-03-25T05:05:34;2.60;50.60
3136;DHT22;1578;47.658;9.922;2024-03-25T05:08:20;2.40;51.00
3136;DHT22;1578;47.658;9.922;2024-03-25T05:11:06;2.40;51.60
3136;DHT22;1578;47.658;9.922;2024-03-25T05:13:52;2.40;52.00
3136;DHT22;1578;47.658;9.922;2024-03-25T05:16:39;2.30;53.00
3136;DHT22;1578;47.658;9.922;2024-03-25T05:19:25;2.20;55.30
3136;DHT22;1578;47.658;9.922;2024-03-25T05:22:11;2.20;55.80
3136;DHT22;1578;47.658;9.922;2024-03-25T05:24:56;2.20;56.70
3136;DHT22;1578;47.658;9.922;2024-03-25T05:27:43;2.30;56.40
3136;DHT22;1578;47.658;9.922;2024-03-25T05:30:29;2.20;55.30
3136;DHT22;1578;47.658;9.922;2024-03-25T05:33:15;2.20;56.30
3136;DHT22;1578;47.658;9.922;2024-03-25T05:36:01;2.20;57.60
3136;DHT22;1578;47.658;9.922;2024-03-25T05:38:47;2.30;56.90
3136;DHT22;1578;47.658;9.922;2024-03-25T05:41:33;2.30;56.60
3136;DHT22;1578;47.658;9.922;2024-03-25T05:44:19;2.30;56.20
3136;DHT22;1578;47.658;9.922;2024-03-25T05:47:05;2.30;57.40
3136;DHT22;1578;47.658;9.922;2024-03-25T05:49:51;2.50;56.20
3136;DHT22;1578;47.658;9.922;2024-03-25T05:52:38;2.60;55.10
3136;DHT22;1578;47.658;9.922;2024-03-25T05:55:24;2.60;53.10
3136;DHT22;1578;47.658;9.922;2024-03-25T05:58:10;2.60;51.50
3136;DHT22;1578;47.658;9.922;2024-03-25T06:00:36;2.50;52.00
3136;DHT22;1578;47.658;9.922;2024-03-25T06:03:02;2.70;52.80
3136;DHT22;1578;47.658;9.922;2024-03-25T06:05:28;2.70;52.80
3136;DHT22;1578;47.658;9.922;2024-03-25T06:07:53;2.80;53.30
3136;DHT22;1578;47.658;9.922;2024-03-25T06:10:19;2.80;53.40
3136;DHT22;1578;47.658;9.922;2024-03-25T06:12:45;2.90;54.40
3136;DHT22;1578;47.658;9.922;2024-03-25T06:15:10;3.20;54.70
3136;DHT22;1578;47.658;9.922;2024-03-25T06:17:36;3.50;56.00
3136;DHT22;1578;47.658;9.922;2024-03-25T06:20:02;3.80;55.30
3136;DHT22;1578;47.658;9.922;2024-03-25T06:22:29;4.00;51.40
3136;DHT22;1578;47.658;9.922;2024-03-25T06:24:55;4.20;48.50
3136;DHT22;1578;47.658;9.922;2024-03-25T06:27:21;4.40;45.90
3136;DHT22;1578;47.658;9.922;2024-03-25T06:29:47;4.50;42.50
3136;DHT22;1578;47.658;9.922;2024-03-25T06:32:14;4.60;41.40
3136;DHT22;1578;47.658;9.922;2024-03-25T06:34:58;4.70;41.40
3136;DHT22;1578;47.658;9.922;2024-03-25T06:37:26;4.90;40.00
3136;DHT22;1578;47.658;9.922;2024-03-25T06:39:52;5.00;39.10
3136;DHT22;1578;47.658;9.922;2024-03-25T06:42:18;5.20;41.00
3136;DHT22;1578;47.658;9.922;2024-03-25T06:44:45;5.20;34.30
3136;DHT22;1578;47.658;9.922;2024-03-25T06:47:15;5.10;39.30
3136;DHT22;1578;47.658;9.922;2024-03-25T06:49:40;5.20;40.70
3136;DHT22;1578;47.658;9.922;2024-03-25T06:52:06;5.30;41.00
3136;DHT22;1578;47.658;9.922;2024-03-25T06:54:31;5.50;37.70
3136;DHT22;1578;47.658;9.922;2024-03-25T06:56:57;5.30;32.30
3136;DHT22;1578;47.658;9.922;2024-03-25T06:59:23;5.20;32.90
3136;DHT22;1578;47.658;9.922;2024-03-25T07:01:48;5.20;37.80
3136;DHT22;1578;47.658;9.922;2024-03-25T07:04:14;5.30;40.10
3136;DHT22;1578;47.658;9.922;2024-03-25T07:06:40;5.50;39.00
3136;DHT22;1578;47.658;9.922;2024-03-25T07:09:06;5.80;35.80
3136;DHT22;1578;47.658;9.922;2024-03-25T07:11:31;5.90;33.40
3136;DHT22;1578;47.658;9.922;2024-03-25T07:13:57;6.00;33.50
3136;DHT22;1578;47.658;9.922;2024-03-25T07:16:23;6.20;31.30
3136;DHT22;1578;47.658;9.922;2024-03-25T07:18:48;6.30;31.80
3136;DHT22;1578;47.658;9.922;2024-03-25T07:21:14;6.50;33.80
3136;DHT22;1578;47.658;9.922;2024-03-25T07:23:39;6.90;32.80
3136;DHT22;1578;47.658;9.922;2024-03-25T07:26:05;7.20;29.70
3136;DHT22;1578;47.658;9.922;2024-03-25T07:28:31;7.20;28.90
3136;DHT22;1578;47.658;9.922;2024-03-25T07:30:57;7.10;24.80
3136;DHT22;1578;47.658;9.922;2024-03-25T07:33:23;6.80;24.50
3136;DHT22;1578;47.658;9.922;2024-03-25T07:35:48;6.40;27.90
3136;DHT22;1578;47.658;9.922;2024-03-25T07:38:15;6.40;29.70
3136;DHT22;1578;47.658;9.922;2024-03-25T07:40:41;6.50;28.10
3136;DHT22;1578;47.658;9.922;2024-03-25T07:43:06;6.70;30.40
3136;DHT22;1578;47.658;9.922;2024-03-25T07:45:34;6.90;31.50
3136;DHT22;1578;47.658;9.922;2024-03-25T07:48:00;7.10;28.60
3136;DHT22;1578;47.658;9.922;2024-03-25T07:50:25;7.20;28.70
3136;DHT22;1578;47.658;9.922;2024-03-25T07:52:51;7.50;26.00
3136;DHT22;1578;47.658;9.922;2024-03-25T07:55:17;7.60;26.80
3136;DHT22;1578;47.658;9.922;2024-03-25T07:57:42;7.60;25.00
3136;DHT22;1578;47.658;9.922;2024-03-25T08:00:08;7.70;26.70
3136;DHT22;1578;47.658;9.922;2024-03-25T08:02:35;7.80;25.40
3136;DHT22;1578;47.658;9.922;2024-03-25T08:05:02;7.80;25.00
3136;DHT22;1578;47.658;9.922;2024-03-25T08:07:28;8.00;26.30
3136;DHT22;1578;47.658;9.922;2024-03-25T08:09:53;8.10;24.20
3136;DHT22;1578;47.658;9.922;2024-03-25T08:12:19;8.20;21.50
3136;DHT22;1578;47.658;9.922;2024-03-25T08:14:45;8.40;23.70
3136;DHT22;1578;47.658;9.922;2024-03-25T08:17:10;8.60;20.00
3136;DHT22;1578;47.658;9.922;2024-03-25T08:19:36;8.60;18.80
3136;DHT22;1578;47.658;9.922;2024-03-25T08:22:01;8.80;22.30
3136;DHT22;1578;47.658;9.922;2024-03-25T08:24:27;9.00;17.60
3136;DHT22;1578;47.658;9.922;2024-03-25T08:26:52;9.10;15.70
3136;DHT22;1578;47.658;9.922;2024-03-25T08:29:18;8.50;13.30
3136;DHT22;1578;47.658;9.922;2024-03-25T08:31:44;8.20;16.70
3136;DHT22;1578;47.658;9.922;2024-03-25T08:34:10;8.40;15.20
3136;DHT22;1578;47.658;9.922;2024-03-25T08:36:35;8.50;15.40
3136;DHT22;1578;47.658;9.922;2024-03-25T08:39:01;8.30;11.70
3136;DHT22;1578;47.658;9.922;2024-03-25T08:41:27;8.10;14.90
3136;DHT22;1578;47.658;9.922;2024-03-25T08:43:52;7.60;16.20
3136;DHT22;1578;47.658;9.922;2024-03-25T08:46:25;7.40;18.50
3136;DHT22;1578;47.658;9.922;2024-03-25T08:48:50;7.70;17.80
3136;DHT22;1578;47.658;9.922;2024-03-25T08:51:16;7.80;19.10
3136;DHT22;1578;47.658;9.922;2024-03-25T08:53:42;7.80;16.30
3136;DHT22;1578;47.658;9.922;2024-03-25T08:56:07;7.80;15.50
3136;DHT22;1578;47.658;9.922;2024-03-25T08:58:33;7.80;15.90
3136;DHT22;1578;47.658;9.922;2024-03-25T09:00:58;7.60;17.70
3136;DHT22;1578;47.658;9.922;2024-03-25T09:03:24;7.90;17.30
3136;DHT22;1578;47.658;9.922;2024-03-25T09:05:49;8.30;16.90
3136;DHT22;1578;47.658;9.922;2024-03-25T09:08:15;8.30;12.10
3136;DHT22;1578;47.658;9.922;2024-03-25T09:10:43;8.30;17.80
3136;DHT22;1578;47.658;9.922;2024-03-25T09:13:29;8.50;15.90
3136;DHT22;1578;47.658;9.922;2024-03-25T09:15:55;8.60;17.80
3136;DHT22;1578;47.658;9.922;2024-03-25T09:18:21;8.60;12.00
3136;DHT22;1578;47.658;9.922;2024-03-25T09:20:51;8.60;14.20
3136;DHT22;1578;47.658;9.922;2024-03-25T09:23:16;8.90;15.60
3136;DHT22;1578;47.658;9.922;2024-03-25T09:25:51;9.20;14.10
3136;DHT22;1578;47.658;9.922;2024-03-25T09:28:17;9.50;17.00
3136;DHT22;1578;47.658;9.922;2024-03-25T09:30:43;9.80;13.10
3136;DHT22;1578;47.658;9.922;2024-03-25T09:33:16;10.10;10.50
3136;DHT22;1578;47.658;9.922;2024-03-25T09:35:57;10.30;10.70
3136;DHT22;1578;47.658;9.922;2024-03-25T09:38:41;10.10;8.70
3136;DHT22;1578;47.658;9.922;2024-03-25T09:41:08;9.90;8.60
3136;DHT22;1578;47.658;9.922;2024-03-25T09:43:48;10.00;5.30
3136;DHT22;1578;47.658;9.922;2024-03-25T09:46:15;10.00;8.50
3136;DHT22;1578;47.658;9.922;2024-03-25T09:48:42;10.20;12.20
3136;DHT22;1578;47.658;9.922;2024-03-25T09:51:09;10.30;6.40
3136;DHT22;1578;47.658;9.922;2024-03-25T09:53:35;10.40;7.20
3136;DHT22;1578;47.658;9.922;2024-03-25T09:56:01;10.50;5.80
3136;DHT22;1578;47.658;9.922;2024-03-25T09:58:31;10.70;7.50
3136;DHT22;1578;47.658;9.922;2024-03-25T10:00:58;11.00;8.60
3136;DHT22;1578;47.658;9.922;2024-03-25T10:03:24;11.00;8.00
3136;DHT22;1578;47.658;9.922;2024-03-25T10:05:50;10.90;4.90
3136;DHT22;1578;47.658;9.922;2024-03-25T10:08:23;11.10;4.90
3136;DHT22;1578;47.658;9.922;2024-03-25T10:10:48;11.10;2.60
3136;DHT22;1578;47.658;9.922;2024-03-25T10:13:16;11.20;4.00
3136;DHT22;1578;47.658;9.922;2024-03-25T10:15:42;11.30;1.00
3136;DHT22;1578;47.658;9.922;2024-03-25T10:18:07;11.30;1.00
3136;DHT22;1578;47.658;9.922;2024-03-25T10:20:33;11.20;1.30
3136;DHT22;1578;47.658;9.922;2024-03-25T10:23:00;11.40;1.00
3136;DHT22;1578;47.658;9.922;2024-03-25T10:25:27;11.50;3.60
3136;DHT22;1578;47.658;9.922;2024-03-25T10:27:59;11.50;2.60
3136;DHT22;1578;47.658;9.922;2024-03-25T10:30:26;11.40;4.00
3136;DHT22;1578;47.658;9.922;2024-03-25T10:33:04;11.50;1.00
3136;DHT22;1578;47.658;9.922;2024-03-25T10:35:32;11.60;1.00
3136;DHT22;1578;47.658;9.922;2024-03-25T10:38:06;11.60;1.00
3136;DHT22;1578;47.658;9.922;2024-03-25T10:40:39;11.50;1.00
3136;DHT22;1578;47.658;9.922;2024-03-25T10:43:09;11.30;1.00
3136;DHT22;1578;47.658;9.922;2024-03-25T10:45:41;11.30;1.00
3136;DHT22;1578;47.658;9.922;2024-03-25T10:48:15;11.40;2.20
3136;DHT22;1578;47.658;9.922;2024-03-25T10:50:43;11.40;5.60
3136;DHT22;1578;47.658;9.922;2024-03-25T10:53:10;11.40;1.00
3136;DHT22;1578;47.658;9.922;2024-03-25T10:55:37;11.40;2.70
3136;DHT22;1578;47.658;9.922;2024-03-25T10:58:07;11.50;1.00
3136;DHT22;1578;47.658;9.922;2024-03-25T11:00:34;11.40;1.00
3136;DHT22;1578;47.658;9.922;2024-03-25T11:03:00;11.40;1.00
3136;DHT22;1578;47.658;9.922;2024-03-25T11:05:26;11.30;1.00
3136;DHT22;1578;47.658;9.922;2024-03-25T11:07:52;11.20;1.00
3136;DHT22;1578;47.658;9.922;2024-03-25T11:10:18;11.30;1.00
3136;DHT22;1578;47.658;9.922;2024-03-25T11:12:43;11.50;1.00
3136;DHT22;1578;47.658;9.922;2024-03-25T11:15:09;11.60;1.00
3136;DHT22;1578;47.658;9.922;2024-03-25T11:17:36;11.70;1.00
3136;DHT22;1578;47.658;9.922;2024-03-25T11:20:16;11.70;1.00
3136;DHT22;1578;47.658;9.922;2024-03-25T11:22:52;11.60;1.00
3136;DHT22;1578;47.658;9.922;2024-03-25T11:25:20;11.80;1.00
3136;DHT22;1578;47.658;9.922;2024-03-25T11:27:47;12.00;1.00
3136;DHT22;1578;47.658;9.922;2024-03-25T11:30:14;12.30;1.00
3136;DHT22;1578;47.658;9.922;2024-03-25T11:32:53;12.40;1.00
3136;DHT22;1578;47.658;9.922;2024-03-25T11:35:19;12.40;1.00
3136;DHT22;1578;47.658;9.922;2024-03-25T11:37:45;12.50;1.00
3136;DHT22;1578;47.658;9.922;2024-03-25T11:40:13;12.80;1.00
3136;DHT22;1578;47.658;9.922;2024-03-25T11:42:43;12.80;1.00
3136;DHT22;1578;47.658;9.922;2024-03-25T11:45:15;13.30;1.00
3136;DHT22;1578;47.658;9.922;2024-03-25T11:47:45;14.10;1.00
3136;DHT22;1578;47.658;9.922;2024-03-25T11:50:15;14.50;1.00
3136;DHT22;1578;47.658;9.922;2024-03-25T11:52:41;15.30;1.00
3136;DHT22;1578;47.658;9.922;2024-03-25T11:55:08;15.90;1.00
3136;DHT22;1578;47.658;9.922;2024-03-25T11:57:39;16.00;1.00
3136;DHT22;1578;47.658;9.922;2024-03-25T12:00:05;15.40;1.00
3136;DHT22;1578;47.658;9.922;2024-03-25T12:02:37;15.40;1.00
3136;DHT22;1578;47.658;9.922;2024-03-25T12:05:05;15.60;1.00
3136;DHT22;1578;47.658;9.922;2024-03-25T12:07:32;15.70;1.00
3136;DHT22;1578;47.658;9.922;2024-03-25T12:09:58;16.10;1.00
3136;DHT22;1578;47.658;9.922;2024-03-25T12:12:42;15.50;1.00
3136;DHT22;1578;47.658;9.922;2024-03-25T12:15:10;16.30;1.00
3136;DHT22;1578;47.658;9.922;2024-03-25T12:17:36;16.80;1.00
3136;DHT22;1578;47.658;9.922;2024-03-25T12:20:07;16.70;1.00
3136;DHT22;1578;47.658;9.922;2024-03-25T12:22:40;16.60;1.00
3136;DHT22;1578;47.658;9.922;2024-03-25T12:25:07;16.60;1.00
3136;DHT22;1578;47.658;9.922;2024-03-25T12:27:34;16.70;1.00
3136;DHT22;1578;47.658;9.922;2024-03-25T12:30:04;16.40;1.00
3136;DHT22;1578;47.658;9.922;2024-03-25T12:32:41;17.00;1.00
3136;DHT22;1578;47.658;9.922;2024-03-25T12:35:17;16.60;1.00
3136;DHT22;1578;47.658;9.922;2024-03-25T12:37:44;16.10;1.00
3136;DHT22;1578;47.658;9.922;2024-03-25T12:40:11;16.40;1.00
3136;DHT22;1578;47.658;9.922;2024-03-25T12:42:38;16.40;1.00
3136;DHT22;1578;47.658;9.922;2024-03-25T12:45:07;16.50;1.00
3136;DHT22;1578;47.658;9.922;2024-03-25T12:47:34;16.50;1.00
3136;DHT22;1578;47.658;9.922;2024-03-25T12:50:00;16.70;1.00
3136;DHT22;1578;47.658;9.922;2024-03-25T12:52:26;17.30;1.00
3136;DHT22;1578;47.658;9.922;2024-03-25T12:54:51;17.40;1.00
3136;DHT22;1578;47.658;9.922;2024-03-25T12:57:17;17.40;1.00
3136;DHT22;1578;47.658;9.922;2024-03-25T12:59:44;17.40;1.00
3136;DHT22;1578;47.658;9.922;2024-03-25T13:02:12;16.70;1.00
3136;DHT22;1578;47.658;9.922;2024-03-25T13:04:38;16.20;1.00
3136;DHT22;1578;47.658;9.922;2024-03-25T13:07:05;16.00;1.00
3136;DHT22;1578;47.658;9.922;2024-03-25T13:09:31;16.00;1.00
3136;DHT22;1578;47.658;9.922;2024-03-25T13:11:57;16.10;1.00
3136;DHT22;1578;47.658;9.922;2024-03-25T13:14:24;16.00;1.00
3136;DHT22;1578;47.658;9.922;2024-03-25T13:16:49;15.80;1.00
3136;DHT22;1578;47.658;9.922;2024-03-25T13:19:16;15.90;1.00
3136;DHT22;1578;47.658;9.922;2024-03-25T13:21:41;15.80;1.00
3136;DHT22;1578;47.658;9.922;2024-03-25T13:24:08;15.90;1.00
3136;DHT22;1578;47.658;9.922;2024-03-25T13:26:33;16.00;1.00
3136;DHT22;1578;47.658;9.922;2024-03-25T13:28:59;15.80;1.00
3136;DHT22;1578;47.658;9.922;2024-03-25T13:31:25;15.80;1.00
3136;DHT22;1578;47.658;9.922;2024-03-25T13:33:51;15.90;1.00
3136;DHT22;1578;47.658;9.922;2024-03-25T13:36:18;15.90;1.00
3136;DHT22;1578;47.658;9.922;2024-03-25T13:38:44;16.30;1.00
3136;DHT22;1578;47.658;9.922;2024-03-25T13:41:11;16.20;1.00
3136;DHT22;1578;47.658;9.922;2024-03-25T13:43:42;15.90;1.00
3136;DHT22;1578;47.658;9.922;2024-03-25T13:46:09;16.10;1.00
3136;DHT22;1578;47.658;9.922;2024-03-25T13:48:34;16.40;1.00
3136;DHT22;1578;47.658;9.922;2024-03-25T13:51:00;16.60;1.00
3136;DHT22;1578;47.658;9.922;2024-03-25T13:53:26;16.60;1.00
3136;DHT22;1578;47.658;9.922;2024-03-25T13:55:52;16.50;1.00
3136;DHT22;1578;47.658;9.922;2024-03-25T13:58:18;16.60;1.00
3136;DHT22;1578;47.658;9.922;2024-03-25T14:00:44;16.80;1.00
3136;DHT22;1578;47.658;9.922;2024-03-25T14:03:10;17.10;1.00
3136;DHT22;1578;47.658;9.922;2024-03-25T14:05:35;17.40;1.00
3136;DHT22;1578;47.658;9.922;2024-03-25T14:08:02;17.70;1.00
3136;DHT22;1578;47.658;9.922;2024-03-25T14:10:30;17.90;1.00
3136;DHT22;1578;47.658;9.922;2024-03-25T14:12:56;17.80;1.00
3136;DHT22;1578;47.658;9.922;2024-03-25T14:15:22;17.80;1.00
3136;DHT22;1578;47.658;9.922;2024-03-25T14:17:48;17.30;1.00
3136;DHT22;1578;47.658;9.922;2024-03-25T14:20:13;17.20;1.00
3136;DHT22;1578;47.658;9.922;2024-03-25T14:22:39;17.10;1.00
3136;DHT22;1578;47.658;9.922;2024-03-25T14:25:05;17.00;1.00
3136;DHT22;1578;47.658;9.922;2024-03-25T14:27:34;16.80;1.00
3136;DHT22;1578;47.658;9.922;2024-03-25T14:30:01;16.30;1.00
3136;DHT22;1578;47.658;9.922;2024-03-25T14:32:29;16.30;1.00
3136;DHT22;1578;47.658;9.922;2024-03-25T14:35:02;16.10;1.00
3136;DHT22;1578;47.658;9.922;2024-03-25T14:37:32;16.10;1.00
3136;DHT22;1578;47.658;9.922;2024-03-25T14:40:02;16.20;1.00
3136;DHT22;1578;47.658;9.922;2024-03-25T14:42:29;16.50;1.00
3136;DHT22;1578;47.658;9.922;2024-03-25T14:44:58;16.70;1.00
3136;DHT22;1578;47.658;9.922;2024-03-25T14:47:25;16.40;1.00
3136;DHT22;1578;47.658;9.922;2024-03-25T14:49:51;16.60;1.00
3136;DHT22;1578;47.658;9.922;2024-03-25T14:52:16;16.60;1.00
3136;DHT22;1578;47.658;9.922;2024-03-25T14:54:42;16.30;1.00
3136;DHT22;1578;47.658;9.922;2024-03-25T14:57:07;16.40;1.00
3136;DHT22;1578;47.658;9.922;2024-03-25T14:59:33;16.40;1.00
3136;DHT22;1578;47.658;9.922;2024-03-25T15:02:00;16.30;1.00
3136;DHT22;1578;47.658;9.922;2024-03-25T15:04:26;16.10;1.00
3136;DHT22;1578;47.658;9.922;2024-03-25T15:06:52;16.00;1.00
3136;DHT22;1578;47.658;9.922;2024-03-25T15:09:19;16.10;1.00
3136;DHT22;1578;47.658;9.922;2024-03-25T15:11:45;16.10;1.00
3136;DHT22;1578;47.658;9.922;2024-03-25T15:14:11;15.90;1.00
3136;DHT22;1578;47.658;9.922;2024-03-25T15:16:37;15.90;1.00
3136;DHT22;1578;47.658;9.922;2024-03-25T15:19:04;16.00;1.00
3136;DHT22;1578;47.658;9.922;2024-03-25T15:21:29;15.70;1.00
3136;DHT22;1578;47.658;9.922;2024-03-25T15:23:55;15.80;1.00
3136;DHT22;1578;47.658;9.922;2024-03-25T15:26:21;16.30;1.00
3136;DHT22;1578;47.658;9.922;2024-03-25T15:28:48;16.50;1.00
3136;DHT22;1578;47.658;9.922;2024-03-25T15:31:13;16.40;1.00
3136;DHT22;1578;47.658;9.922;2024-03-25T15:33:39;16.40;1.00
3136;DHT22;1578;47.658;9.922;2024-03-25T15:36:04;16.40;1.00
3136;DHT22;1578;47.658;9.922;2024-03-25T15:38:30;16.10;1.00
3136;DHT22;1578;47.658;9.922;2024-03-25T15:40:56;16.20;1.00
3136;DHT22;1578;47.658;9.922;2024-03-25T15:43:22;16.20;1.00
3136;DHT22;1578;47.658;9.922;2024-03-25T15:45:59;16.10;1.00
3136;DHT22;1578;47.658;9.922;2024-03-25T15:48:25;15.70;1.00
3136;DHT22;1578;47.658;9.922;2024-03-25T15:50:52;16.10;1.00
3136;DHT22;1578;47.658;9.922;2024-03-25T15:53:18;16.00;1.00
3136;DHT22;1578;47.658;9.922;2024-03-25T15:55:44;16.00;1.00
3136;DHT22;1578;47.658;9.922;2024-03-25T15:58:10;16.20;1.00
3136;DHT22;1578;47.658;9.922;2024-03-25T16:00:36;16.10;1.00
3136;DHT22;1578;47.658;9.922;2024-03-25T16:03:04;16.10;1.00
3136;DHT22;1578;47.658;9.922;2024-03-25T16:05:30;15.90;1.00
3136;DHT22;1578;47.658;9.922;2024-03-25T16:07:55;16.00;1.00
3136;DHT22;1578;47.658;9.922;2024-03-25T16:10:29;16.00;1.00
3136;DHT22;1578;47.658;9.922;2024-03-25T16:12:58;15.90;1.00
3136;DHT22;1578;47.658;9.922;2024-03-25T16:15:25;15.50;1.00
3136;DHT22;1578;47.658;9.922;2024-03-25T16:17:51;15.40;1.00
3136;DHT22;1578;47.658;9.922;2024-03-25T16:20:17;14.60;1.00
3136;DHT22;1578;47.658;9.922;2024-03-25T16:22:44;14.10;1.00
3136;DHT22;1578;47.658;9.922;2024-03-25T16:25:12;13.60;1.00
3136;DHT22;1578;47.658;9.922;2024-03-25T16:27:38;13.30;1.00
3136;DHT22;1578;47.658;9.922;2024-03-25T16:30:04;12.80;1.00
3136;DHT22;1578;47.658;9.922;2024-03-25T16:32:35;12.50;1.00
3136;DHT22;1578;47.658;9.922;2024-03-25T16:35:01;12.30;1.00
3136;DHT22;1578;47.658;9.922;2024-03-25T16:37:29;12.00;1.00
3136;DHT22;1578;47.658;9.922;2024-03-25T16:39:54;11.90;1.00
3136;DHT22;1578;47.658;9.922;2024-03-25T16:42:21;11.80;1.00
3136;DHT22;1578;47.658;9.922;2024-03-25T16:44:47;11.80;1.00
3136;DHT22;1578;47.658;9.922;2024-03-25T16:47:13;11.40;1.00
3136;DHT22;1578;47.658;9.922;2024-03-25T16:49:39;11.00;1.00
3136;DHT22;1578;47.658;9.922;2024-03-25T16:52:05;10.90;1.00
3136;DHT22;1578;47.658;9.922;2024-03-25T16:54:31;10.70;1.00
3136;DHT22;1578;47.658;9.922;2024-03-25T16:56:57;10.60;1.00